createdAt,value
2023-01-29T00:01:27.426Z,96847.06
2023-01-29T00:03:30.161Z,96848.56
2023-01-29T00:05:32.952Z,96845.34
2023-01-29T00:07:35.693Z,96841.56
2023-01-29T00:09:38.580Z,96826.78
2023-01-29T00:11:41.729Z,96825.00
2023-01-29T00:13:44.573Z,96766.22
2023-01-29T00:15:56.342Z,96831.81
2023-01-29T00:17:59.102Z,96730.72
2023-01-29T00:20:01.829Z,96842.53
2023-01-29T00:22:04.625Z,96838.63
2023-01-29T00:24:07.713Z,96835.28
2023-01-29T00:26:11.311Z,96831.34
2023-01-29T00:28:18.807Z,96836.06
2023-01-29T00:30:21.578Z,96834.56
2023-01-29T00:32:25.659Z,96824.84
2023-01-29T00:34:28.391Z,96818.75
2023-01-29T00:36:31.606Z,96817.34
2023-01-29T00:38:37.129Z,96824.16
2023-01-29T00:40:58.229Z,96787.94
2023-01-29T00:43:18.932Z,96833.25
2023-01-29T00:45:21.652Z,96832.81
2023-01-29T00:47:33.261Z,96769.28
2023-01-29T00:49:36.027Z,96832.72
2023-01-29T00:51:40.130Z,96792.84
2023-01-29T00:53:42.886Z,96837.13
2023-01-29T00:55:45.877Z,96792.44
2023-01-29T00:57:49.227Z,96823.00
2023-01-29T00:59:52.236Z,96778.50
2023-01-29T01:02:12.453Z,96838.31
2023-01-29T01:04:16.582Z,96782.63
2023-01-29T01:06:19.330Z,96802.56
2023-01-29T01:08:39.467Z,96831.00
2023-01-29T01:10:42.222Z,96820.59
2023-01-29T01:12:45.244Z,96828.00
2023-01-29T01:14:48.265Z,96813.75
2023-01-29T01:16:50.997Z,96822.88
2023-01-29T01:18:53.846Z,96823.56
2023-01-29T01:20:59.747Z,96733.31
2023-01-29T01:23:02.731Z,96821.28
2023-01-29T01:25:06.422Z,96829.53
2023-01-29T01:27:09.388Z,96805.34
2023-01-29T01:29:12.264Z,96821.06
2023-01-29T01:31:15.553Z,96817.88
2023-01-29T01:33:18.442Z,96818.88
2023-01-29T01:35:21.334Z,96820.31
2023-01-29T01:37:26.372Z,96825.94
2023-01-29T01:39:29.228Z,96821.06
2023-01-29T01:41:32.533Z,96821.06
2023-01-29T01:43:49.284Z,96645.69
2023-01-29T01:45:52.662Z,96820.28
2023-01-29T01:48:00.447Z,96812.59
2023-01-29T01:50:09.172Z,96821.84
2023-01-29T01:52:15.259Z,96795.31
2023-01-29T01:54:24.796Z,96818.59
2023-01-29T01:56:40.457Z,96807.53
2023-01-29T01:58:50.825Z,96810.19
2023-01-29T02:00:55.854Z,96814.16
2023-01-29T02:03:16.207Z,96811.41
2023-01-29T02:05:36.656Z,96812.41
2023-01-29T02:08:01.084Z,96730.00
2023-01-29T02:10:11.290Z,96806.22
2023-01-29T02:12:17.104Z,96728.25
2023-01-29T02:14:20.038Z,96817.72
2023-01-29T02:16:23.180Z,96817.50
2023-01-29T02:18:25.949Z,96699.97
2023-01-29T02:20:31.885Z,96766.31
2023-01-29T02:22:56.540Z,96812.09
2023-01-29T02:25:19.126Z,96784.91
2023-01-29T02:27:25.320Z,96816.75
2023-01-29T02:29:39.016Z,96836.22
2023-01-29T02:31:49.496Z,96745.59
2023-01-29T02:34:00.226Z,96823.47
2023-01-29T02:36:15.977Z,96838.94
2023-01-29T02:38:24.906Z,96737.97
2023-01-29T02:40:32.662Z,96822.41
2023-01-29T02:42:40.339Z,96834.56
2023-01-29T02:44:49.776Z,96833.53
2023-01-29T02:46:58.682Z,96832.56
2023-01-29T02:49:11.645Z,96823.16
2023-01-29T02:51:22.890Z,96828.75
2023-01-29T02:53:30.953Z,96803.13
2023-01-29T02:55:39.246Z,96753.16
2023-01-29T02:57:45.552Z,96830.22
2023-01-29T02:59:55.937Z,96812.63
2023-01-29T03:02:04.976Z,96825.00
2023-01-29T03:04:12.788Z,96834.31
2023-01-29T03:06:22.200Z,96828.38
2023-01-29T03:08:43.132Z,96826.66
2023-01-29T03:10:52.636Z,96790.63
2023-01-29T03:12:59.683Z,96820.34
2023-01-29T03:15:16.722Z,96818.69
2023-01-29T03:17:41.080Z,96756.72
2023-01-29T03:19:48.073Z,96753.97
2023-01-29T03:22:04.154Z,96812.84
2023-01-29T03:24:27.587Z,96842.00
2023-01-29T03:26:49.318Z,96807.56
2023-01-29T03:29:10.532Z,96823.13
2023-01-29T03:31:34.839Z,96817.41
2023-01-29T03:33:45.600Z,96823.25
2023-01-29T03:36:06.542Z,96698.03
2023-01-29T03:38:11.430Z,96796.03
2023-01-29T03:40:16.077Z,96822.63
2023-01-29T03:42:25.687Z,96826.66
2023-01-29T03:44:37.154Z,96773.78
2023-01-29T03:46:47.907Z,96773.63
2023-01-29T03:48:59.335Z,96831.03
2023-01-29T03:51:15.898Z,96822.75
2023-01-29T03:53:26.708Z,96752.91
2023-01-29T03:55:37.137Z,96824.31
2023-01-29T03:57:45.542Z,96812.34
2023-01-29T03:59:58.168Z,96814.44
2023-01-29T04:02:28.079Z,96818.41
2023-01-29T04:04:36.342Z,96828.72
2023-01-29T04:06:44.346Z,96825.78
2023-01-29T04:08:53.329Z,96827.75
2023-01-29T04:11:00.534Z,96843.94
2023-01-29T04:13:07.776Z,96829.75
2023-01-29T04:15:15.639Z,96824.72
2023-01-29T04:17:25.035Z,96819.78
2023-01-29T04:19:44.834Z,96830.38
2023-01-29T04:21:51.886Z,96822.78
2023-01-29T04:23:55.429Z,96745.34
2023-01-29T04:26:12.388Z,96830.66
2023-01-29T04:28:22.330Z,96809.03
2023-01-29T04:30:36.158Z,96825.59
2023-01-29T04:32:54.304Z,96826.63
2023-01-29T04:35:02.547Z,96816.81
2023-01-29T04:37:19.150Z,96821.13
2023-01-29T04:39:26.682Z,96829.25
2023-01-29T04:41:35.038Z,96818.63
2023-01-29T04:43:45.596Z,96796.34
2023-01-29T04:45:59.399Z,96826.44
2023-01-29T04:48:15.367Z,96817.84
2023-01-29T04:50:25.977Z,96825.84
2023-01-29T04:52:39.018Z,96827.16
2023-01-29T04:54:56.082Z,96813.94
2023-01-29T04:57:06.811Z,96813.94
2023-01-29T04:59:15.345Z,96792.78
2023-01-29T05:01:22.373Z,96799.56
2023-01-29T05:03:29.152Z,96789.75
2023-01-29T05:05:32.430Z,96812.78
2023-01-29T05:07:38.602Z,96817.50
2023-01-29T05:09:45.071Z,96811.59
2023-01-29T05:11:49.338Z,96813.94
2023-01-29T05:13:52.362Z,96805.84
2023-01-29T05:16:01.541Z,96815.75
2023-01-29T05:18:08.914Z,96811.28
2023-01-29T05:20:14.002Z,96776.56
2023-01-29T05:22:22.580Z,96834.09
2023-01-29T05:24:27.694Z,96790.78
2023-01-29T05:26:48.063Z,96830.28
2023-01-29T05:28:50.761Z,96830.78
2023-01-29T05:30:55.014Z,96786.00
2023-01-29T05:32:57.789Z,96815.91
2023-01-29T05:35:00.521Z,96808.50
2023-01-29T05:37:04.841Z,96801.06
2023-01-29T05:39:07.604Z,96806.50
2023-01-29T05:41:10.309Z,96813.78
2023-01-29T05:43:17.835Z,96817.75
2023-01-29T05:45:20.633Z,96825.00
2023-01-29T05:47:23.354Z,96826.16
2023-01-29T05:49:26.400Z,96817.91
2023-01-29T05:51:29.099Z,96822.53
2023-01-29T05:53:33.828Z,96820.88
2023-01-29T05:55:36.909Z,96816.25
2023-01-29T05:57:40.853Z,96810.63
2023-01-29T05:59:43.610Z,96810.47
2023-01-29T06:01:46.341Z,96815.25
2023-01-29T06:03:49.528Z,96808.81
2023-01-29T06:05:52.210Z,96787.81
2023-01-29T06:07:54.943Z,96781.22
2023-01-29T06:09:59.147Z,96781.53
2023-01-29T06:12:01.995Z,96790.13
2023-01-29T06:14:04.789Z,96779.56
2023-01-29T06:16:08.805Z,96778.56
2023-01-29T06:18:11.506Z,96768.66
2023-01-29T06:20:14.820Z,96749.50
2023-01-29T06:22:17.864Z,96786.66
2023-01-29T06:24:21.063Z,96793.13
2023-01-29T06:26:25.205Z,96780.41
2023-01-29T06:28:27.943Z,96794.03
2023-01-29T06:30:31.989Z,96796.56
2023-01-29T06:32:35.158Z,96800.03
2023-01-29T06:34:37.856Z,96802.72
2023-01-29T06:36:41.748Z,96814.75
2023-01-29T06:38:44.523Z,96804.06
2023-01-29T06:40:47.222Z,96801.94
2023-01-29T06:42:51.244Z,96802.72
2023-01-29T06:44:53.949Z,96808.97
2023-01-29T06:46:56.826Z,96802.72
2023-01-29T06:49:01.162Z,96763.91
2023-01-29T06:51:05.251Z,96817.16
2023-01-29T06:53:07.910Z,96819.50
2023-01-29T06:55:11.031Z,96820.03
2023-01-29T06:57:13.734Z,96811.59
2023-01-29T06:59:17.859Z,96758.72
2023-01-29T07:01:34.534Z,96835.75
2023-01-29T07:03:38.679Z,96728.34
2023-01-29T07:05:41.412Z,96821.22
2023-01-29T07:07:44.225Z,96811.28
2023-01-29T07:09:46.954Z,96816.25
2023-01-29T07:11:49.691Z,96834.34
2023-01-29T07:13:52.447Z,96821.13
2023-01-29T07:15:59.410Z,96837.09
2023-01-29T07:18:04.536Z,96832.97
2023-01-29T07:20:08.523Z,96835.66
2023-01-29T07:22:11.220Z,96837.16
2023-01-29T07:24:14.122Z,96830.75
2023-01-29T07:26:16.936Z,96832.28
2023-01-29T07:28:20.475Z,96727.16
2023-01-29T07:30:23.530Z,96836.75
2023-01-29T07:32:29.926Z,96832.44
2023-01-29T07:34:32.648Z,96820.88
2023-01-29T07:36:37.175Z,96836.56
2023-01-29T07:38:39.990Z,96823.19
2023-01-29T07:40:42.867Z,96831.13
2023-01-29T07:42:45.586Z,96833.78
2023-01-29T07:44:48.388Z,96838.91
2023-01-29T07:46:51.157Z,96829.63
2023-01-29T07:48:55.228Z,96850.28
2023-01-29T07:50:58.955Z,96853.94
2023-01-29T07:53:02.388Z,96750.97
2023-01-29T07:55:05.536Z,96850.63
2023-01-29T07:57:08.276Z,96857.72
2023-01-29T07:59:11.056Z,96861.84
2023-01-29T08:01:13.899Z,96853.75
2023-01-29T08:03:18.342Z,96857.06
2023-01-29T08:05:22.448Z,96854.25
2023-01-29T08:07:25.209Z,96859.03
2023-01-29T08:09:27.917Z,96853.59
2023-01-29T08:11:30.830Z,96868.97
2023-01-29T08:13:33.880Z,96864.00
2023-01-29T08:15:39.087Z,96790.47
2023-01-29T08:20:07.171Z,96815.59
2023-01-29T08:22:11.562Z,96863.50
2023-01-29T08:24:14.285Z,96861.53
2023-01-29T08:26:17.011Z,96827.81
2023-01-29T08:28:19.918Z,96844.34
2023-01-29T08:30:22.862Z,96861.19
2023-01-29T08:32:25.651Z,96864.16
2023-01-29T08:34:28.431Z,96865.97
2023-01-29T08:36:31.433Z,96866.16
2023-01-29T08:38:35.546Z,96863.69
2023-01-29T08:40:38.311Z,96877.91
2023-01-29T08:42:42.397Z,96866.97
2023-01-29T08:44:45.120Z,96884.81
2023-01-29T08:46:47.908Z,96845.34
2023-01-29T08:48:50.673Z,96788.16
2023-01-29T08:50:53.447Z,96885.00
2023-01-29T08:52:59.032Z,96879.03
2023-01-29T08:55:03.132Z,96891.28
2023-01-29T08:57:05.848Z,96887.63
2023-01-29T08:59:08.664Z,96831.78
2023-01-29T09:01:12.617Z,96891.28
2023-01-29T09:03:15.394Z,96776.72
2023-01-29T09:05:18.761Z,96903.00
2023-01-29T09:07:22.660Z,96886.31
2023-01-29T09:09:25.390Z,96896.56
2023-01-29T09:11:29.490Z,96898.06
2023-01-29T09:13:32.283Z,96887.97
2023-01-29T09:15:35.020Z,96892.94
2023-01-29T09:17:37.754Z,96889.31
2023-01-29T09:19:40.943Z,96890.63
2023-01-29T09:21:43.672Z,96889.78
2023-01-29T09:23:46.518Z,96891.53
2023-01-29T09:25:49.519Z,96900.06
2023-01-29T09:27:55.109Z,96901.19
2023-01-29T09:29:57.828Z,96825.59
2023-01-29T09:32:00.622Z,96904.81
2023-01-29T09:34:03.357Z,96910.59
2023-01-29T09:36:06.997Z,96903.34
2023-01-29T09:38:10.052Z,96897.88
2023-01-29T09:40:27.274Z,96899.28
2023-01-29T09:42:39.231Z,96898.22
2023-01-29T09:44:58.534Z,96908.34
2023-01-29T09:47:07.185Z,96895.53
2023-01-29T09:49:15.833Z,96907.16
2023-01-29T09:51:27.974Z,96914.38
2023-01-29T09:53:37.706Z,96895.25
2023-01-29T09:55:46.430Z,96880.03
2023-01-29T09:57:52.471Z,96894.53
2023-01-29T09:59:56.913Z,96865.09
2023-01-29T10:02:10.198Z,96891.78
2023-01-29T10:04:39.455Z,96889.13
2023-01-29T10:06:54.564Z,96889.72
2023-01-29T10:09:18.493Z,96886.88
2023-01-29T10:11:35.524Z,96885.34
2023-01-29T10:13:46.232Z,96874.19
2023-01-29T10:16:06.542Z,96869.41
2023-01-29T10:18:33.191Z,96856.50
2023-01-29T10:20:50.748Z,96831.53
2023-01-29T10:23:04.265Z,96851.22
2023-01-29T10:25:11.532Z,96844.44
2023-01-29T10:27:16.869Z,96834.53
2023-01-29T10:29:22.776Z,96825.03
2023-01-29T10:31:33.151Z,96842.41
2023-01-29T10:33:49.658Z,96826.41
2023-01-29T10:36:08.148Z,96829.38
2023-01-29T10:38:24.283Z,96801.09
2023-01-29T10:40:35.606Z,96833.38
2023-01-29T10:42:47.011Z,96841.13
2023-01-29T10:45:01.390Z,96827.06
2023-01-29T10:47:34.793Z,96838.22
2023-01-29T10:49:55.959Z,96842.06
2023-01-29T10:52:12.222Z,96831.50
2023-01-29T10:54:33.416Z,96804.88
2023-01-29T10:56:50.842Z,96801.56
2023-01-29T10:58:56.500Z,96830.09
2023-01-29T11:00:59.733Z,96823.09
2023-01-29T11:03:26.944Z,96831.53
2023-01-29T11:05:37.050Z,96829.03
2023-01-29T11:07:39.939Z,96813.22
2023-01-29T11:09:49.125Z,96824.09
2023-01-29T11:11:56.204Z,96814.84
2023-01-29T11:14:06.979Z,96806.63
2023-01-29T11:16:11.115Z,96809.56
2023-01-29T11:18:16.107Z,96794.28
2023-01-29T11:20:29.471Z,96821.91
2023-01-29T11:22:32.321Z,96825.22
2023-01-29T11:24:35.068Z,96809.13
2023-01-29T11:26:41.732Z,96819.09
2023-01-29T11:28:46.717Z,96836.72
2023-01-29T11:30:51.887Z,96836.25
2023-01-29T11:33:07.258Z,96841.88
2023-01-29T11:35:23.297Z,96824.22
2023-01-29T11:37:33.903Z,96760.69
2023-01-29T11:39:44.892Z,96828.22
2023-01-29T11:41:54.707Z,96825.66
2023-01-29T11:43:59.676Z,96791.41
2023-01-29T11:46:05.084Z,96748.88
2023-01-29T11:48:16.815Z,96790.25
2023-01-29T11:50:24.400Z,96782.19
2023-01-29T11:52:36.451Z,96804.81
2023-01-29T11:54:45.476Z,96801.50
2023-01-29T11:56:49.315Z,96809.81
2023-01-29T11:58:55.371Z,96796.59
2023-01-29T12:00:59.925Z,96798.13
2023-01-29T12:03:08.351Z,96802.13
2023-01-29T12:05:17.093Z,96767.81
2023-01-29T12:07:21.626Z,96766.44
2023-01-29T12:09:27.327Z,96802.03
2023-01-29T12:11:32.298Z,96774.38
2023-01-29T12:13:36.086Z,96792.06
2023-01-29T12:15:39.477Z,96777.31
2023-01-29T12:17:44.555Z,96757.94
2023-01-29T12:19:52.644Z,96775.69
2023-01-29T12:22:03.110Z,96777.59
2023-01-29T12:24:24.209Z,96767.44
2023-01-29T12:26:33.517Z,96762.13
2023-01-29T12:28:49.459Z,96758.72
2023-01-29T12:31:05.829Z,96754.78
2023-01-29T12:33:16.892Z,96742.88
2023-01-29T12:35:25.998Z,96670.31
2023-01-29T12:37:39.099Z,96742.03
2023-01-29T12:39:43.251Z,96661.56
2023-01-29T12:41:52.544Z,96725.59
2023-01-29T12:43:59.064Z,96718.13
2023-01-29T12:46:03.087Z,96706.88
2023-01-29T12:48:11.168Z,96624.75
2023-01-29T12:50:20.991Z,96679.41
2023-01-29T12:52:35.092Z,96699.28
2023-01-29T12:54:40.293Z,96682.38
2023-01-29T12:56:48.083Z,96574.38
2023-01-29T12:58:53.884Z,96673.03
2023-01-29T13:01:02.625Z,96668.13
2023-01-29T13:03:12.117Z,96671.22
2023-01-29T13:05:21.737Z,96656.38
2023-01-29T13:07:29.427Z,96661.00
2023-01-29T13:09:34.925Z,96642.25
2023-01-29T13:11:42.115Z,96648.09
2023-01-29T13:13:54.084Z,96638.66
2023-01-29T13:16:00.025Z,96636.69
2023-01-29T13:18:21.513Z,96611.16
2023-01-29T13:20:29.800Z,96653.50
2023-01-29T13:22:36.329Z,96646.59
2023-01-29T13:24:44.343Z,96656.03
2023-01-29T13:26:51.247Z,96655.41
2023-01-29T13:28:55.954Z,96655.53
2023-01-29T13:31:14.748Z,96641.78
2023-01-29T13:33:24.522Z,96639.38
2023-01-29T13:35:27.497Z,96636.91
2023-01-29T13:37:33.596Z,96651.22
2023-01-29T13:39:44.369Z,96640.97
2023-01-29T13:41:47.456Z,96642.19
2023-01-29T13:43:51.335Z,96647.63
2023-01-29T13:45:56.115Z,96648.59
2023-01-29T13:48:13.265Z,96637.31
2023-01-29T13:50:22.582Z,96637.09
2023-01-29T13:52:34.700Z,96626.78
2023-01-29T13:54:38.424Z,96639.75
2023-01-29T13:56:49.961Z,96619.63
2023-01-29T13:58:57.352Z,96546.03
2023-01-29T14:01:02.349Z,96647.72
2023-01-29T14:04:04.086Z,96648.41
2023-01-29T14:06:08.655Z,96645.38
2023-01-29T14:08:39.845Z,96640.25
2023-01-29T14:10:43.931Z,96649.66
2023-01-29T14:12:52.312Z,96655.25
2023-01-29T14:15:06.640Z,96655.81
2023-01-29T14:17:10.872Z,96642.72
2023-01-29T14:19:19.994Z,96664.47
2023-01-29T14:21:28.295Z,96664.06
2023-01-29T14:23:37.230Z,96663.22
2023-01-29T14:25:41.894Z,96660.97
2023-01-29T14:27:48.705Z,96664.03
2023-01-29T14:29:57.530Z,96666.09
2023-01-29T14:32:08.358Z,96661.47
2023-01-29T14:34:24.876Z,96665.88
2023-01-29T14:36:27.989Z,96664.19
2023-01-29T14:38:31.050Z,96667.72
2023-01-29T14:40:36.876Z,96663.22
2023-01-29T14:42:45.120Z,96670.81
2023-01-29T14:44:50.134Z,96646.53
2023-01-29T14:46:54.045Z,96670.00
2023-01-29T14:48:56.840Z,96653.25
2023-01-29T14:51:09.670Z,96585.03
2023-01-29T14:53:19.406Z,96660.72
2023-01-29T14:55:30.661Z,96535.13
2023-01-29T14:57:34.352Z,96660.25
2023-01-29T14:59:41.477Z,96670.66
2023-01-29T15:01:50.961Z,96672.25
2023-01-29T15:03:59.269Z,96666.94
2023-01-29T15:06:04.029Z,96668.19
2023-01-29T15:08:14.668Z,96599.69
2023-01-29T15:10:22.866Z,96657.84
2023-01-29T15:12:32.458Z,96660.50
2023-01-29T15:14:40.688Z,96669.03
2023-01-29T15:16:52.702Z,96663.09
2023-01-29T15:19:05.366Z,96650.31
2023-01-29T15:21:14.280Z,96629.44
2023-01-29T15:23:27.188Z,96630.31
2023-01-29T15:25:35.488Z,96649.16
2023-01-29T15:27:43.091Z,96598.09
2023-01-29T15:29:52.610Z,96653.00
2023-01-29T15:31:55.905Z,96631.97
2023-01-29T15:34:00.147Z,96644.88
2023-01-29T15:36:08.887Z,96656.56
2023-01-29T15:38:18.540Z,96662.63
2023-01-29T15:40:21.391Z,96656.88
2023-01-29T15:42:25.819Z,96663.72
2023-01-29T15:44:28.579Z,96664.09
2023-01-29T15:46:35.214Z,96667.13
2023-01-29T15:48:41.528Z,96642.97
2023-01-29T15:50:45.267Z,96641.66
2023-01-29T15:52:50.920Z,96648.34
2023-01-29T15:54:57.397Z,96449.28
2023-01-29T15:57:00.901Z,96637.56
2023-01-29T15:59:09.850Z,96651.44
2023-01-29T16:01:14.161Z,96648.16
2023-01-29T16:03:17.814Z,96641.94
2023-01-29T16:05:23.125Z,96647.63
2023-01-29T16:07:26.211Z,96592.34
2023-01-29T16:09:29.861Z,96641.19
2023-01-29T16:11:35.053Z,96641.56
2023-01-29T16:13:41.066Z,96644.75
2023-01-29T16:15:56.086Z,96644.66
2023-01-29T16:18:00.995Z,96635.13
2023-01-29T16:20:06.735Z,96596.97
2023-01-29T16:22:10.152Z,96642.50
2023-01-29T16:24:19.678Z,96639.50
2023-01-29T16:26:26.664Z,96586.56
2023-01-29T16:28:31.429Z,96630.56
2023-01-29T16:30:34.428Z,96649.78
2023-01-29T16:32:37.523Z,96605.16
2023-01-29T16:34:42.835Z,96656.06
2023-01-29T16:36:47.512Z,96641.00
2023-01-29T16:38:54.141Z,96641.25
2023-01-29T16:41:09.081Z,96624.06
2023-01-29T16:43:50.574Z,96636.72
2023-01-29T16:46:03.290Z,96621.75
2023-01-29T16:48:27.652Z,96431.16
2023-01-29T16:50:40.503Z,96640.69
2023-01-29T16:52:57.669Z,96587.38
2023-01-29T16:55:03.336Z,96646.34
2023-01-29T16:57:06.096Z,96640.75
2023-01-29T16:59:19.863Z,96633.84
2023-01-29T17:01:25.463Z,96637.31
2023-01-29T17:03:31.519Z,96651.63
2023-01-29T17:05:37.905Z,96651.50
2023-01-29T17:07:40.680Z,96652.25
2023-01-29T17:09:43.659Z,96591.91
2023-01-29T17:11:46.432Z,96660.00
2023-01-29T17:13:49.275Z,96657.66
2023-01-29T17:15:53.598Z,96664.13
2023-01-29T17:17:56.362Z,96659.16
2023-01-29T17:19:59.907Z,96649.59
2023-01-29T17:22:05.495Z,96649.25
2023-01-29T17:24:08.464Z,96655.69
2023-01-29T17:26:14.996Z,96654.22
2023-01-29T17:28:18.766Z,96654.56
2023-01-29T17:30:24.575Z,96658.56
2023-01-29T17:32:42.971Z,96667.50
2023-01-29T17:34:48.240Z,96559.13
2023-01-29T17:36:50.956Z,96654.63
2023-01-29T17:38:54.023Z,96603.50
2023-01-29T17:41:00.851Z,96651.19
2023-01-29T17:43:03.903Z,96621.66
2023-01-29T17:45:08.101Z,96658.28
2023-01-29T17:47:15.011Z,96653.00
2023-01-29T17:49:25.735Z,96638.16
2023-01-29T17:51:28.490Z,96657.63
2023-01-29T17:53:45.429Z,96609.75
2023-01-29T17:55:49.413Z,96575.97
2023-01-29T17:57:52.210Z,96634.19
2023-01-29T17:59:54.941Z,96657.47
2023-01-29T18:01:57.972Z,96643.47
2023-01-29T18:04:00.847Z,96528.66
2023-01-29T18:06:08.759Z,96517.63
2023-01-29T18:08:17.608Z,96650.72
2023-01-29T18:10:22.939Z,96582.25
2023-01-29T18:12:25.811Z,96646.94
2023-01-29T18:14:28.597Z,96650.75
2023-01-29T18:16:37.098Z,96651.22
2023-01-29T18:18:40.398Z,96661.31
2023-01-29T18:20:44.938Z,96645.47
2023-01-29T18:22:49.427Z,96656.34
2023-01-29T18:24:52.256Z,96632.09
2023-01-29T18:26:55.066Z,96656.69
2023-01-29T18:28:57.815Z,96654.06
2023-01-29T18:31:02.335Z,96647.63
2023-01-29T18:33:05.286Z,96643.16
2023-01-29T18:35:09.320Z,96652.72
2023-01-29T18:37:13.036Z,96621.72
2023-01-29T18:39:17.743Z,96654.72
2023-01-29T18:41:20.998Z,96648.94
2023-01-29T18:43:26.191Z,96643.16
2023-01-29T18:45:29.381Z,96641.50
2023-01-29T18:47:32.231Z,96589.34
2023-01-29T18:49:38.737Z,96650.25
2023-01-29T18:51:41.546Z,96629.47
2023-01-29T18:53:46.532Z,96644.97
2023-01-29T18:56:02.519Z,96584.25
2023-01-29T18:58:25.089Z,96553.72
2023-01-29T19:00:28.075Z,96634.75
2023-01-29T19:02:30.849Z,96638.03
2023-01-29T19:04:33.949Z,96640.03
2023-01-29T19:06:37.953Z,96642.50
2023-01-29T19:08:42.850Z,96540.03
2023-01-29T19:10:46.088Z,96574.19
2023-01-29T19:12:50.186Z,96639.50
2023-01-29T19:14:52.987Z,96638.84
2023-01-29T19:16:57.077Z,96630.13
2023-01-29T19:19:00.102Z,96634.72
2023-01-29T19:21:08.333Z,96546.59
2023-01-29T19:23:11.363Z,96562.91
2023-01-29T19:25:14.111Z,96626.31
2023-01-29T19:27:17.305Z,96648.06
2023-01-29T19:29:21.723Z,96634.56
2023-01-29T19:31:24.898Z,96631.25
2023-01-29T19:33:28.661Z,96639.84
2023-01-29T19:35:32.632Z,96652.03
2023-01-29T19:37:35.529Z,96654.03
2023-01-29T19:39:38.519Z,96649.06
2023-01-29T19:41:41.730Z,96650.31
2023-01-29T19:43:45.799Z,96645.22
2023-01-29T19:45:51.017Z,96664.34
2023-01-29T19:47:55.056Z,96643.72
2023-01-29T19:49:57.886Z,96654.00
2023-01-29T19:52:01.043Z,96650.88
2023-01-29T19:54:04.114Z,96666.19
2023-01-29T19:56:09.433Z,96659.44
2023-01-29T19:58:12.438Z,96656.47
2023-01-29T20:00:17.477Z,96622.94
2023-01-29T20:02:21.669Z,96675.13
2023-01-29T20:04:24.454Z,96624.91
2023-01-29T20:06:30.969Z,96664.72
2023-01-29T20:08:34.667Z,96656.81
2023-01-29T20:10:37.553Z,96655.00
2023-01-29T20:12:40.357Z,96660.44
2023-01-29T20:14:48.613Z,96626.25
2023-01-29T20:16:51.387Z,96660.91
2023-01-29T20:18:55.466Z,96662.56
2023-01-29T20:21:22.046Z,96656.94
2023-01-29T20:23:37.247Z,96536.94
2023-01-29T20:25:41.697Z,96336.16
2023-01-29T20:27:44.592Z,96662.72
2023-01-29T20:29:47.369Z,96666.81
2023-01-29T20:31:50.246Z,96668.13
2023-01-29T20:33:53.042Z,96669.09
2023-01-29T20:35:58.422Z,96572.00
2023-01-29T20:38:01.720Z,96665.13
2023-01-29T20:40:04.937Z,96662.81
2023-01-29T20:42:07.753Z,96655.22
2023-01-29T20:44:10.674Z,96660.81
2023-01-29T20:46:14.121Z,96559.63
2023-01-29T20:48:17.013Z,96629.06
2023-01-29T20:50:20.091Z,96644.38
2023-01-29T20:52:27.747Z,96483.63
2023-01-29T20:54:33.159Z,96652.59
2023-01-29T20:56:44.003Z,96647.28
2023-01-29T20:58:50.121Z,96606.13
2023-01-29T21:00:53.027Z,96582.03
2023-01-29T21:02:55.802Z,96626.97
2023-01-29T21:04:58.562Z,96635.03
2023-01-29T21:07:01.383Z,96652.97
2023-01-29T21:09:05.621Z,96625.75
2023-01-29T21:11:10.210Z,96625.59
2023-01-29T21:13:13.512Z,96612.22
2023-01-29T21:15:16.696Z,96569.84
2023-01-29T21:17:19.609Z,96603.03
2023-01-29T21:19:22.434Z,96611.91
2023-01-29T21:21:26.627Z,96602.34
2023-01-29T21:23:29.456Z,96600.91
2023-01-29T21:25:33.625Z,96604.34
2023-01-29T21:27:36.321Z,96605.69
2023-01-29T21:29:39.058Z,96606.84
2023-01-29T21:31:42.225Z,96615.22
2023-01-29T21:33:45.223Z,96614.88
2023-01-29T21:35:47.966Z,96598.06
2023-01-29T21:37:50.708Z,96613.56
2023-01-29T21:39:53.435Z,96612.25
2023-01-29T21:42:15.121Z,96510.56
2023-01-29T21:44:17.843Z,96604.34
2023-01-29T21:46:20.655Z,96614.38
2023-01-29T21:48:23.526Z,96611.91
2023-01-29T21:50:26.208Z,96609.75
2023-01-29T21:52:29.077Z,96617.81
2023-01-29T21:54:35.366Z,96607.28
2023-01-29T21:56:38.072Z,96605.94
2023-01-29T21:58:42.145Z,96593.44
2023-01-29T22:00:50.602Z,96603.34
2023-01-29T22:02:53.440Z,96529.69
2023-01-29T22:05:08.657Z,96606.44
2023-01-29T22:07:19.005Z,96600.66
2023-01-29T22:09:22.557Z,96615.03
2023-01-29T22:11:25.338Z,96598.06
2023-01-29T22:13:28.071Z,96612.22
2023-01-29T22:15:32.165Z,96582.47
2023-01-29T22:17:35.280Z,96599.72
2023-01-29T22:19:38.054Z,96608.25
2023-01-29T22:21:40.840Z,96604.78
2023-01-29T22:23:43.541Z,96552.16
2023-01-29T22:25:46.294Z,96597.06
2023-01-29T22:27:49.058Z,96604.94
2023-01-29T22:29:51.796Z,96604.28
2023-01-29T22:31:57.506Z,96556.28
2023-01-29T22:34:00.248Z,96570.63
2023-01-29T22:36:03.423Z,96558.13
2023-01-29T22:38:06.524Z,96583.22
2023-01-29T22:40:10.589Z,96590.13
2023-01-29T22:42:13.308Z,96581.88
2023-01-29T22:44:16.136Z,96587.63
2023-01-29T22:46:18.977Z,96590.25
2023-01-29T22:48:23.517Z,96599.66
2023-01-29T22:50:26.349Z,96592.06
2023-01-29T22:52:38.631Z,96593.41
2023-01-29T22:54:42.864Z,96575.59
2023-01-29T22:56:45.603Z,96578.38
2023-01-29T22:58:51.315Z,96576.25
2023-01-29T23:00:54.091Z,96571.97
2023-01-29T23:02:56.801Z,96570.63
2023-01-29T23:05:00.925Z,96569.66
2023-01-29T23:07:03.959Z,96540.28
2023-01-29T23:09:06.955Z,96548.88
2023-01-29T23:11:18.730Z,96516.22
2023-01-29T23:13:21.471Z,96532.41
2023-01-29T23:15:24.180Z,96522.88
2023-01-29T23:17:26.939Z,96536.88
2023-01-29T23:19:30.491Z,96525.19
2023-01-29T23:21:34.839Z,96504.75
2023-01-29T23:23:38.535Z,96504.44
2023-01-29T23:25:58.925Z,96397.19
2023-01-29T23:28:01.651Z,96466.09
2023-01-29T23:30:05.556Z,96504.56
2023-01-29T23:32:08.454Z,96514.59
2023-01-29T23:34:11.286Z,96436.69
2023-01-29T23:36:14.067Z,96488.88
2023-01-29T23:38:18.483Z,96502.75
2023-01-29T23:40:21.228Z,96497.44
2023-01-29T23:42:23.998Z,96478.03
2023-01-29T23:44:26.825Z,96454.28
2023-01-29T23:46:29.748Z,96448.84
2023-01-29T23:48:32.513Z,96453.47
2023-01-29T23:50:35.226Z,96489.22
2023-01-29T23:52:38.824Z,96481.34
2023-01-29T23:54:42.855Z,96467.81
2023-01-29T23:56:45.767Z,96432.03
2023-01-29T23:58:48.483Z,96460.28
